Terminal Aerodrome Forecast
Issued by NWS

Home | Current Version | Previous Version | Text Only | Print | Product List | Glossary On
Versions: 1 2 3 4 5 6 7 8 9 10 11 12 13 14 15 16 17 18 19 20 21 22 23 24 25 26 27 28 29 30 31 32 33 34 35 36 37 38 39 40 41 42 43 44 45
916
FTUS46 KLOX 201748
TAFLAX
TAF
KLAX 201748Z 2018/2124 10011KT 2SM BR BKN007 OVC022
     FM201900 12008KT 4SM -RA BR OVC010
     FM210100 VRB05KT 6SM BR VCSH OVC007
     FM210700 14005KT 4SM BR VCSH OVC015
     FM211400 10006KT 2SM BR VCSH OVC008
     FM212000 24006KT 4SM BR BKN015=

USA.gov is the U.S. government's official web portal to all federal, state and local government web resources and services.